Time;durP1;ratioP1;P1;durP2;ratioP2;P2;SDS_P1;SDS_P2;PMS_P1;PMS_P2;Temp;Humidity;BMP_temperature;BMP_pressure;BME280_temperature;BME280_humidity;BME280_pressure;Samples;Min_cycle;Max_cycle;Signal;HPM_P1;HPM_P2
2023/10/22 00:01:48;;;;;;;2.17;0.65;;;13.80;99.90;;;;;;5093770;28;20028;-82
2023/10/22 00:04:13;;;;;;;2.85;0.70;;;13.80;99.90;;;;;;5092778;28;20492;-82
2023/10/22 00:06:39;;;;;;;3.35;0.70;;;13.80;99.90;;;;;;5092754;28;20028;-82
2023/10/22 00:09:05;;;;;;;2.92;1.35;;;13.70;99.90;;;;;;5094024;28;20461;-83
2023/10/22 00:11:30;;;;;;;2.38;0.65;;;13.70;99.90;;;;;;5094659;28;20077;-83
2023/10/22 00:13:56;;;;;;;1.00;0.45;;;13.70;99.90;;;;;;5094805;28;20024;-84
2023/10/22 00:16:22;;;;;;;2.75;0.60;;;13.70;99.90;;;;;;5094155;28;20028;-84
2023/10/22 00:18:47;;;;;;;3.20;0.82;;;13.60;99.90;;;;;;5094616;28;20036;-84
2023/10/22 00:21:13;;;;;;;2.80;0.60;;;13.60;99.90;;;;;;5094645;28;20028;-84
2023/10/22 00:23:38;;;;;;;3.53;0.70;;;13.60;99.90;;;;;;5093293;28;20069;-83
2023/10/22 00:26:04;;;;;;;2.67;0.77;;;13.50;99.90;;;;;;5093947;28;20024;-83
2023/10/22 00:28:31;;;;;;;3.90;0.80;;;13.50;99.90;;;;;;5093434;28;20059;-83
2023/10/22 00:30:57;;;;;;;2.35;0.60;;;13.50;99.90;;;;;;5093899;28;20060;-83
2023/10/22 00:33:22;;;;;;;2.92;0.52;;;13.50;99.90;;;;;;5095038;28;20028;-83
2023/10/22 00:35:58;;;;;;;1.85;0.68;;;13.40;99.90;;;;;;5093152;28;20055;-83
2023/10/22 00:38:25;;;;;;;3.75;0.73;;;13.30;99.90;;;;;;5093415;28;20034;-81
2023/10/22 00:40:50;;;;;;;2.47;0.82;;;13.30;99.90;;;;;;5093382;28;20027;-84
2023/10/22 00:43:16;;;;;;;2.72;0.73;;;13.20;99.90;;;;;;5093442;28;20032;-83
2023/10/22 00:45:43;;;;;;;2.70;0.60;;;13.20;99.90;;;;;;5093769;28;20055;-83
2023/10/22 00:48:11;;;;;;;3.00;0.50;;;13.20;99.90;;;;;;5094508;28;20109;-82
2023/10/22 00:50:40;;;;;;;0.90;0.52;;;13.20;99.90;;;;;;5092995;28;20036;-82
2023/10/22 00:53:12;;;;;;;2.00;0.50;;;13.20;99.90;;;;;;5094449;28;20165;-84
2023/10/22 00:55:40;;;;;;;6.22;0.60;;;13.10;99.90;;;;;;5094271;28;20077;-84
2023/10/22 00:58:06;;;;;;;1.17;0.40;;;13.00;99.90;;;;;;5094574;28;20098;-84
2023/10/22 01:00:33;;;;;;;2.92;0.88;;;13.00;99.90;;;;;;5093823;28;20099;-84
2023/10/22 01:03:03;;;;;;;2.05;0.80;;;13.00;99.90;;;;;;5094441;28;20024;-84
2023/10/22 01:05:29;;;;;;;1.88;0.63;;;13.00;99.90;;;;;;5094217;28;20077;-79
2023/10/22 01:07:56;;;;;;;1.88;0.38;;;12.90;99.90;;;;;;5093646;28;20031;-84
2023/10/22 01:10:21;;;;;;;1.77;0.50;;;12.90;99.90;;;;;;5093481;28;20089;-84
2023/10/22 01:12:47;;;;;;;2.67;0.52;;;12.90;99.90;;;;;;5092809;28;20043;-84
2023/10/22 01:15:12;;;;;;;1.92;0.50;;;12.90;99.90;;;;;;5093391;28;20123;-84
2023/10/22 01:17:38;;;;;;;2.03;0.82;;;12.90;99.90;;;;;;5093820;28;20033;-82
2023/10/22 01:20:05;;;;;;;3.33;0.50;;;12.90;99.90;;;;;;5094238;28;20035;-83
2023/10/22 01:22:33;;;;;;;1.85;0.60;;;12.90;99.90;;;;;;5093832;28;20024;-81
2023/10/22 01:24:58;;;;;;;1.10;0.73;;;13.00;99.90;;;;;;5092654;28;20032;-82
2023/10/22 01:27:24;;;;;;;1.75;0.40;;;13.00;99.90;;;;;;5092687;28;20024;-82
2023/10/22 01:29:49;;;;;;;1.50;0.50;;;13.00;99.90;;;;;;5092796;28;20032;-83
2023/10/22 01:32:15;;;;;;;0.93;0.70;;;13.00;99.90;;;;;;5094255;28;20028;-83
2023/10/22 01:34:41;;;;;;;2.58;0.57;;;13.00;99.90;;;;;;5097599;28;20103;-82
2023/10/22 01:37:06;;;;;;;3.75;0.70;;;13.00;99.90;;;;;;5097676;28;20020;-83
2023/10/22 01:39:32;;;;;;;1.30;0.45;;;13.00;99.90;;;;;;5097724;28;20028;-81
2023/10/22 01:41:57;;;;;;;1.25;0.50;;;13.00;99.90;;;;;;5097015;28;20020;-82
2023/10/22 01:44:23;;;;;;;1.13;0.50;;;12.90;99.90;;;;;;5097817;28;20024;-83
2023/10/22 01:46:50;;;;;;;4.00;0.80;;;12.90;99.90;;;;;;5097587;28;20223;-83
2023/10/22 01:49:15;;;;;;;1.67;0.50;;;12.90;99.90;;;;;;5097038;28;20038;-82
2023/10/22 01:51:41;;;;;;;1.25;0.60;;;12.90;99.90;;;;;;5096383;28;20031;-82
2023/10/22 01:54:07;;;;;;;1.15;0.40;;;12.90;99.90;;;;;;5097085;28;20055;-83
2023/10/22 01:56:32;;;;;;;3.42;0.60;;;12.90;99.90;;;;;;5097563;28;20028;-82
2023/10/22 01:58:58;;;;;;;2.15;0.57;;;12.90;99.90;;;;;;5097854;28;20032;-83
2023/10/22 02:01:25;;;;;;;2.47;0.50;;;12.80;99.90;;;;;;5098296;28;20035;-83
2023/10/22 02:03:51;;;;;;;1.13;0.55;;;12.80;99.90;;;;;;5096282;28;20173;-84
2023/10/22 02:06:17;;;;;;;2.67;0.60;;;12.80;99.90;;;;;;5097740;28;20457;-84
2023/10/22 02:08:45;;;;;;;2.58;0.60;;;12.80;99.90;;;;;;5097317;28;20031;-84
2023/10/22 02:11:11;;;;;;;1.77;0.52;;;12.80;99.90;;;;;;5097409;28;20020;-84
2023/10/22 02:13:36;;;;;;;3.35;0.60;;;12.80;99.90;;;;;;5096146;28;20465;-84
2023/10/22 02:16:02;;;;;;;0.65;0.32;;;12.70;99.90;;;;;;5096388;28;20032;-85
2023/10/22 02:18:27;;;;;;;1.92;0.70;;;12.70;99.90;;;;;;5097525;28;20028;-84
2023/10/22 02:21:05;;;;;;;2.40;0.63;;;12.80;99.90;;;;;;5096062;28;20120;-84
2023/10/22 02:23:31;;;;;;;5.60;0.60;;;12.80;99.90;;;;;;5096372;28;20032;-80
2023/10/22 02:25:57;;;;;;;1.67;0.40;;;12.80;99.90;;;;;;5096134;28;20024;-82
2023/10/22 02:28:22;;;;;;;1.88;1.02;;;12.80;99.90;;;;;;5096281;28;20484;-82
2023/10/22 02:30:49;;;;;;;3.90;1.02;;;12.80;99.90;;;;;;5095639;28;20028;-82
2023/10/22 02:33:15;;;;;;;2.35;0.60;;;12.70;99.90;;;;;;5096243;28;20076;-82
2023/10/22 02:35:41;;;;;;;1.63;0.50;;;12.80;99.90;;;;;;5095322;28;20146;-81
2023/10/22 02:38:08;;;;;;;1.35;0.52;;;12.70;99.90;;;;;;5097450;28;20024;-82
2023/10/22 02:40:35;;;;;;;0.55;0.30;;;12.70;99.90;;;;;;5096338;28;20054;-81
2023/10/22 02:43:02;;;;;;;1.20;0.60;;;12.80;99.90;;;;;;5096946;28;20465;-82
2023/10/22 02:45:28;;;;;;;3.22;0.60;;;12.80;99.90;;;;;;5095488;28;20035;-82
2023/10/22 02:47:55;;;;;;;1.50;0.55;;;12.70;99.90;;;;;;5096577;28;20032;-83
2023/10/22 02:50:21;;;;;;;3.00;0.60;;;12.70;99.90;;;;;;5096003;28;20024;-83
2023/10/22 02:52:47;;;;;;;3.60;0.65;;;12.70;99.90;;;;;;5095355;28;20024;-83
2023/10/22 02:55:12;;;;;;;1.27;0.55;;;12.70;99.90;;;;;;5095657;28;20046;-83
2023/10/22 02:57:38;;;;;;;1.30;0.70;;;12.70;99.90;;;;;;5095409;28;20382;-83
2023/10/22 03:00:05;;;;;;;1.70;0.60;;;12.70;99.90;;;;;;5095993;28;20076;-83
2023/10/22 03:02:30;;;;;;;1.10;0.40;;;12.60;99.90;;;;;;5096021;28;20463;-83
2023/10/22 03:04:56;;;;;;;2.55;0.50;;;12.60;99.90;;;;;;5095334;28;20105;-83
2023/10/22 03:07:23;;;;;;;1.92;0.60;;;12.50;99.90;;;;;;5096939;28;20035;-83
2023/10/22 03:09:49;;;;;;;0.98;0.50;;;12.50;99.90;;;;;;5094955;28;20119;-82
2023/10/22 03:12:15;;;;;;;1.13;0.55;;;12.50;99.90;;;;;;5096819;28;20504;-83
2023/10/22 03:14:40;;;;;;;2.90;0.60;;;12.40;99.90;;;;;;5094951;28;20115;-82
2023/10/22 03:17:06;;;;;;;1.85;0.47;;;12.40;99.90;;;;;;5095322;28;20032;-83
2023/10/22 03:19:32;;;;;;;3.10;0.60;;;12.40;99.90;;;;;;5095537;28;20051;-83
2023/10/22 03:21:57;;;;;;;2.75;0.50;;;12.40;99.90;;;;;;5094889;28;20020;-84
2023/10/22 03:24:23;;;;;;;1.77;0.60;;;12.40;99.90;;;;;;5096544;28;20182;-83
2023/10/22 03:26:49;;;;;;;2.65;0.60;;;12.40;99.90;;;;;;5095778;28;20373;-83
2023/10/22 03:29:14;;;;;;;1.73;0.80;;;12.40;99.90;;;;;;5094941;28;20040;-83
2023/10/22 03:31:40;;;;;;;1.95;0.60;;;12.40;99.90;;;;;;5094570;28;20035;-82
2023/10/22 03:34:06;;;;;;;1.77;0.57;;;12.40;99.90;;;;;;5095072;28;20036;-82
2023/10/22 03:36:31;;;;;;;2.08;0.70;;;12.40;99.90;;;;;;5094626;28;20492;-82
2023/10/22 03:38:57;;;;;;;2.55;0.90;;;12.30;99.90;;;;;;5095569;28;20019;-83
2023/10/22 03:41:22;;;;;;;2.45;0.57;;;12.30;99.90;;;;;;5094971;28;20357;-82
2023/10/22 03:43:49;;;;;;;5.57;0.70;;;12.30;99.90;;;;;;5095644;28;20028;-84
2023/10/22 03:46:14;;;;;;;1.80;0.45;;;12.30;99.90;;;;;;5095135;28;20106;-83
2023/10/22 03:48:40;;;;;;;1.63;0.40;;;12.30;99.90;;;;;;5094531;28;20048;-83
2023/10/22 03:51:05;;;;;;;0.82;0.43;;;12.30;99.90;;;;;;5094888;28;20510;-84
2023/10/22 03:53:31;;;;;;;1.63;0.45;;;12.30;99.90;;;;;;5094977;28;20525;-85
2023/10/22 03:55:57;;;;;;;1.42;0.50;;;12.30;99.90;;;;;;5093443;28;20078;-82
2023/10/22 03:58:25;;;;;;;2.72;0.50;;;12.30;99.90;;;;;;5095625;28;20028;-84
2023/10/22 04:00:52;;;;;;;3.95;0.60;;;12.30;99.90;;;;;;5094235;28;20020;-84
2023/10/22 04:03:18;;;;;;;1.42;0.70;;;12.30;99.90;;;;;;5095732;28;20031;-84
2023/10/22 04:05:43;;;;;;;1.23;0.40;;;12.30;99.90;;;;;;5094233;28;20389;-84
2023/10/22 04:08:09;;;;;;;2.00;0.50;;;12.30;99.90;;;;;;5095756;28;20173;-84
2023/10/22 04:10:35;;;;;;;1.00;0.40;;;12.30;99.90;;;;;;5095471;28;20032;-83
2023/10/22 04:13:02;;;;;;;1.83;0.40;;;12.30;99.90;;;;;;5093937;28;20028;-83
2023/10/22 04:15:29;;;;;;;3.00;0.30;;;12.30;99.90;;;;;;5095223;28;20377;-84
2023/10/22 04:17:54;;;;;;;1.30;0.40;;;12.30;99.90;;;;;;5094700;28;20024;-83
2023/10/22 04:20:20;;;;;;;1.00;0.32;;;12.30;99.90;;;;;;5093738;28;20035;-84
2023/10/22 04:22:47;;;;;;;2.40;0.43;;;12.30;99.90;;;;;;5092934;28;20077;-83
2023/10/22 04:25:13;;;;;;;0.38;0.30;;;12.30;99.90;;;;;;5095345;28;20028;-83
2023/10/22 04:27:39;;;;;;;3.03;0.50;;;12.30;99.90;;;;;;5093933;28;20048;-80
2023/10/22 04:30:05;;;;;;;2.17;0.50;;;12.30;99.90;;;;;;5094710;28;20067;-83
2023/10/22 04:32:33;;;;;;;2.45;0.35;;;12.20;99.90;;;;;;5094308;28;20039;-82
2023/10/22 04:34:58;;;;;;;2.65;0.73;;;12.30;99.90;;;;;;5092974;28;20115;-82
2023/10/22 04:37:26;;;;;;;1.40;0.40;;;12.30;99.90;;;;;;5094884;28;20067;-84
2023/10/22 04:39:51;;;;;;;2.38;0.40;;;12.30;99.90;;;;;;5093092;28;20032;-83
2023/10/22 04:42:17;;;;;;;1.00;0.30;;;12.30;99.90;;;;;;5093568;28;20080;-82
2023/10/22 04:44:45;;;;;;;3.72;0.60;;;12.30;99.90;;;;;;5092992;28;20031;-82
2023/10/22 04:47:11;;;;;;;0.52;0.32;;;12.30;99.90;;;;;;5094727;28;20031;-84
2023/10/22 04:49:37;;;;;;;2.78;0.40;;;12.30;99.90;;;;;;5093671;28;20032;-84
2023/10/22 04:52:03;;;;;;;3.08;0.52;;;12.30;99.90;;;;;;5094365;28;20451;-83
2023/10/22 04:54:28;;;;;;;1.65;0.40;;;12.30;99.90;;;;;;5094126;28;20024;-85
2023/10/22 04:56:54;;;;;;;2.30;0.35;;;12.30;99.90;;;;;;5093526;28;20028;-86
2023/10/22 04:59:20;;;;;;;1.95;0.47;;;12.30;99.90;;;;;;5093800;28;20059;-86
2023/10/22 05:01:45;;;;;;;3.13;0.50;;;12.30;99.90;;;;;;5093187;28;20032;-86
2023/10/22 05:04:11;;;;;;;0.93;0.60;;;12.30;99.90;;;;;;5093434;28;20497;-84
2023/10/22 05:06:36;;;;;;;3.15;0.65;;;12.30;99.90;;;;;;5093317;28;20115;-83
2023/10/22 05:09:02;;;;;;;3.33;0.50;;;12.30;99.90;;;;;;5093770;28;20118;-85
2023/10/22 05:11:28;;;;;;;2.17;0.45;;;12.30;99.90;;;;;;5094464;28;20052;-85
2023/10/22 05:13:54;;;;;;;1.40;0.30;;;12.30;99.90;;;;;;5092919;28;20020;-85
2023/10/22 05:16:19;;;;;;;3.20;0.30;;;12.30;99.90;;;;;;5093580;28;20492;-86
2023/10/22 05:18:45;;;;;;;3.35;0.50;;;12.30;99.90;;;;;;5093897;28;20042;-81
2023/10/22 05:21:10;;;;;;;1.77;0.50;;;12.30;99.90;;;;;;5093543;28;20056;-82
2023/10/22 05:23:36;;;;;;;2.05;0.55;;;12.30;99.90;;;;;;5094293;28;20031;-82
2023/10/22 05:26:02;;;;;;;1.92;0.30;;;12.30;99.90;;;;;;5092437;28;20020;-82
2023/10/22 05:28:28;;;;;;;3.83;0.47;;;12.30;99.90;;;;;;5094094;28;20031;-82
2023/10/22 05:30:53;;;;;;;3.50;0.63;;;12.30;99.90;;;;;;5092386;28;20058;-82
2023/10/22 05:33:19;;;;;;;1.58;0.20;;;12.30;99.90;;;;;;5094246;28;20099;-82
2023/10/22 05:35:44;;;;;;;2.80;0.52;;;12.30;99.90;;;;;;5092598;28;20040;-80
2023/10/22 05:38:10;;;;;;;1.52;0.40;;;12.30;99.90;;;;;;5093073;28;20396;-82
2023/10/22 05:40:37;;;;;;;2.17;0.35;;;12.30;99.90;;;;;;5093392;28;20031;-83
2023/10/22 05:43:03;;;;;;;1.98;0.50;;;12.30;99.90;;;;;;5092530;28;20028;-82
2023/10/22 05:45:28;;;;;;;4.40;0.52;;;12.30;99.90;;;;;;5094321;28;20112;-83
2023/10/22 05:47:54;;;;;;;2.65;0.38;;;12.30;99.90;;;;;;5093127;28;20060;-83
2023/10/22 05:50:19;;;;;;;1.52;0.30;;;12.20;99.90;;;;;;5092565;28;20020;-83
2023/10/22 05:52:45;;;;;;;2.03;0.43;;;12.20;99.90;;;;;;5092756;28;20093;-80
2023/10/22 05:55:13;;;;;;;4.50;0.60;;;12.20;99.90;;;;;;5092866;28;20028;-83
2023/10/22 05:57:39;;;;;;;1.67;0.40;;;12.20;99.90;;;;;;5092665;28;20429;-83
2023/10/22 06:00:07;;;;;;;2.67;0.40;;;12.30;99.90;;;;;;5092691;28;20070;-83
2023/10/22 06:02:33;;;;;;;3.20;0.40;;;12.30;99.90;;;;;;5086960;28;20499;-83
2023/10/22 06:04:59;;;;;;;3.85;0.60;;;12.30;99.90;;;;;;5087101;28;20052;-83
2023/10/22 06:07:25;;;;;;;1.08;0.40;;;12.30;99.90;;;;;;5092880;28;20472;-83
2023/10/22 06:09:50;;;;;;;1.88;0.43;;;12.30;99.90;;;;;;5092165;28;20363;-82
2023/10/22 06:12:16;;;;;;;3.92;0.65;;;12.30;99.90;;;;;;5092494;28;20032;-83
2023/10/22 06:14:41;;;;;;;1.58;0.40;;;12.30;99.90;;;;;;5094196;28;20101;-83
2023/10/22 06:17:07;;;;;;;1.48;0.77;;;12.30;99.90;;;;;;5093424;28;20139;-83
2023/10/22 06:19:33;;;;;;;2.78;0.57;;;12.30;99.90;;;;;;5094693;28;20523;-83
2023/10/22 06:21:58;;;;;;;2.10;0.40;;;12.30;99.90;;;;;;5096024;28;20024;-83
2023/10/22 06:24:24;;;;;;;4.18;0.40;;;12.30;99.90;;;;;;5097636;28;20036;-83
2023/10/22 06:26:50;;;;;;;4.25;0.50;;;12.40;99.90;;;;;;5095750;28;20024;-83
2023/10/22 06:29:15;;;;;;;2.33;0.40;;;12.40;99.90;;;;;;5097495;28;20035;-83
2023/10/22 06:31:42;;;;;;;2.03;0.43;;;12.40;99.90;;;;;;5097001;28;20107;-84
2023/10/22 06:34:07;;;;;;;3.05;0.68;;;12.50;99.90;;;;;;5095770;28;20027;-84
2023/10/22 06:36:33;;;;;;;3.95;0.60;;;12.50;99.90;;;;;;5096943;28;20044;-84
2023/10/22 06:38:58;;;;;;;1.20;0.40;;;12.50;99.90;;;;;;5096360;28;20040;-83
2023/10/22 06:41:25;;;;;;;2.47;0.50;;;12.60;99.90;;;;;;5095884;28;20534;-84
2023/10/22 06:43:51;;;;;;;0.95;0.38;;;12.60;99.90;;;;;;5095638;28;20092;-82
2023/10/22 06:46:17;;;;;;;2.17;0.30;;;12.70;99.90;;;;;;5097431;28;20507;-84
2023/10/22 06:48:43;;;;;;;0.93;0.40;;;12.80;99.90;;;;;;5096591;28;20020;-83
2023/10/22 06:51:13;;;;;;;3.50;0.40;;;12.80;99.90;;;;;;5096332;28;20101;-83
2023/10/22 06:53:39;;;;;;;1.27;0.28;;;12.90;99.90;;;;;;5095349;28;20024;-83
2023/10/22 06:56:06;;;;;;;2.25;0.57;;;12.90;99.90;;;;;;5095422;28;20028;-83
2023/10/22 06:58:32;;;;;;;2.90;0.43;;;13.00;99.90;;;;;;5095561;28;20028;-83
2023/10/22 07:01:11;;;;;;;0.90;0.30;;;13.00;99.90;;;;;;5091346;28;20037;-82
2023/10/22 07:03:41;;;;;;;2.53;0.50;;;13.00;99.90;;;;;;5075539;28;20021;-83
2023/10/22 07:06:07;;;;;;;4.13;0.60;;;13.00;99.90;;;;;;5075905;28;20056;-83
2023/10/22 07:08:32;;;;;;;0.88;0.28;;;13.00;99.90;;;;;;5075178;28;20036;-82
2023/10/22 07:10:58;;;;;;;1.38;0.43;;;13.00;99.90;;;;;;5081938;28;20032;-82
2023/10/22 07:13:24;;;;;;;5.00;0.70;;;13.00;99.90;;;;;;5095227;28;20538;-83
2023/10/22 07:15:51;;;;;;;2.28;0.45;;;13.10;99.90;;;;;;5094815;28;20028;-81
2023/10/22 07:18:17;;;;;;;2.30;0.40;;;13.10;99.90;;;;;;5095852;28;20051;-82
2023/10/22 07:20:42;;;;;;;1.63;0.30;;;13.00;99.90;;;;;;5095089;28;20064;-82
2023/10/22 07:23:08;;;;;;;1.77;0.50;;;13.00;99.90;;;;;;5095057;28;20020;-81
2023/10/22 07:25:34;;;;;;;3.90;0.50;;;13.00;99.90;;;;;;5094436;28;20031;-83
2023/10/22 07:28:00;;;;;;;1.35;0.30;;;13.00;99.90;;;;;;5094057;28;20047;-82
2023/10/22 07:30:26;;;;;;;2.35;0.30;;;13.00;99.90;;;;;;5094265;28;20032;-82
2023/10/22 07:32:52;;;;;;;2.35;0.60;;;13.00;99.90;;;;;;5095371;28;20039;-79
2023/10/22 07:35:18;;;;;;;2.10;0.45;;;13.10;99.90;;;;;;5094148;28;20097;-81
2023/10/22 07:37:44;;;;;;;6.25;0.68;;;13.10;99.90;;;;;;5093819;28;20024;-82
2023/10/22 07:40:14;;;;;;;2.78;0.50;;;13.10;99.90;;;;;;5093893;28;20023;-82
2023/10/22 07:42:44;;;;;;;3.03;0.40;;;13.20;99.90;;;;;;5094381;28;20028;-83
2023/10/22 07:45:10;;;;;;;2.95;0.68;;;13.30;99.90;;;;;;5094911;28;20484;-84
2023/10/22 07:47:38;;;;;;;2.10;0.60;;;13.30;99.90;;;;;;5095890;28;20028;-83
2023/10/22 07:50:05;;;;;;;2.22;0.40;;;13.30;99.90;;;;;;5095283;28;20055;-84
2023/10/22 07:52:31;;;;;;;3.60;0.60;;;13.30;99.90;;;;;;5085954;28;20114;-84
2023/10/22 07:54:57;;;;;;;1.80;0.63;;;13.40;99.90;;;;;;5094180;28;20046;-83
2023/10/22 07:57:24;;;;;;;1.13;0.50;;;13.40;99.90;;;;;;5094223;28;20350;-85
2023/10/22 07:59:50;;;;;;;1.92;0.60;;;13.40;99.90;;;;;;5094440;28;20027;-81
2023/10/22 08:02:16;;;;;;;3.35;0.52;;;13.40;99.90;;;;;;5093977;28;20439;-82
2023/10/22 08:04:41;;;;;;;2.60;0.70;;;13.40;99.90;;;;;;5095461;28;20024;-84
2023/10/22 08:07:07;;;;;;;3.22;0.88;;;13.40;99.90;;;;;;5094405;28;20403;-83
2023/10/22 08:09:33;;;;;;;3.58;0.50;;;13.50;99.90;;;;;;5102778;28;20055;-83
2023/10/22 08:11:58;;;;;;;2.80;0.50;;;13.50;99.90;;;;;;5115084;28;20444;-83
2023/10/22 08:14:25;;;;;;;2.20;0.47;;;13.60;99.90;;;;;;5098217;28;20027;-81
2023/10/22 08:16:50;;;;;;;3.55;0.47;;;13.70;99.90;;;;;;5109852;28;20036;-79
2023/10/22 08:19:16;;;;;;;3.03;0.65;;;13.70;99.90;;;;;;5099432;28;20031;-84
2023/10/22 08:21:42;;;;;;;2.65;0.40;;;13.80;99.90;;;;;;5093594;28;20441;-86
2023/10/22 08:24:08;;;;;;;3.08;0.40;;;13.90;99.90;;;;;;5092477;28;20108;-86
2023/10/22 08:26:40;;;;;;;2.78;0.45;;;13.90;99.90;;;;;;5101709;28;20153;-85
2023/10/22 08:29:08;;;;;;;5.63;0.70;;;14.00;99.90;;;;;;5100020;28;20028;-82
2023/10/22 08:31:33;;;;;;;6.90;1.20;;;14.00;99.90;;;;;;5095307;28;20028;-82
2023/10/22 08:33:59;;;;;;;2.67;0.70;;;14.10;99.90;;;;;;5092810;28;20043;-82
2023/10/22 08:36:25;;;;;;;6.30;1.00;;;14.10;99.90;;;;;;5089996;28;20057;-83
2023/10/22 08:38:51;;;;;;;1.65;0.50;;;14.10;99.90;;;;;;5109715;28;20047;-79
2023/10/22 08:41:30;;;;;;;4.85;0.40;;;14.20;99.90;;;;;;5098974;28;20461;-84
2023/10/22 08:43:58;;;;;;;2.53;0.60;;;14.20;99.90;;;;;;5111907;28;20034;-81
2023/10/22 08:46:24;;;;;;;4.38;0.52;;;14.20;99.90;;;;;;5094209;28;20115;-82
2023/10/22 08:48:50;;;;;;;1.73;0.30;;;14.30;99.90;;;;;;5110223;28;20068;-83
2023/10/22 08:51:18;;;;;;;2.53;0.35;;;14.30;99.90;;;;;;5092227;28;20036;-84
2023/10/22 08:53:44;;;;;;;5.07;0.43;;;14.30;99.90;;;;;;5103187;28;20031;-86
2023/10/22 08:56:10;;;;;;;4.40;0.40;;;14.30;99.90;;;;;;5097614;28;20031;-84
2023/10/22 08:58:36;;;;;;;2.58;0.40;;;14.30;99.90;;;;;;5094356;28;20055;-84
2023/10/22 09:01:01;;;;;;;4.60;0.50;;;14.30;99.90;;;;;;5105485;28;20024;-85
2023/10/22 09:03:29;;;;;;;1.63;0.47;;;14.30;99.90;;;;;;5082607;28;20453;-83
2023/10/22 09:05:55;;;;;;;4.43;0.70;;;14.30;99.90;;;;;;5103516;28;20476;-80
2023/10/22 09:08:20;;;;;;;2.92;0.55;;;14.40;99.90;;;;;;5113022;28;20024;-84
2023/10/22 09:10:46;;;;;;;3.80;0.70;;;14.40;99.90;;;;;;5095883;28;20119;-83
2023/10/22 09:13:22;;;;;;;3.10;0.95;;;14.40;99.90;;;;;;5098224;28;20510;-84
2023/10/22 09:15:49;;;;;;;4.07;0.57;;;14.50;99.90;;;;;;5103609;28;20035;-82
2023/10/22 09:18:17;;;;;;;2.83;0.47;;;14.50;99.90;;;;;;5094532;28;20032;-84
2023/10/22 09:20:44;;;;;;;4.47;0.60;;;14.50;99.90;;;;;;5096240;28;20063;-83
2023/10/22 09:23:19;;;;;;;1.30;0.35;;;14.60;99.90;;;;;;5098398;28;20106;-83
2023/10/22 09:25:49;;;;;;;1.88;0.43;;;14.60;99.90;;;;;;5101842;28;20536;-83
2023/10/22 09:28:17;;;;;;;4.22;0.50;;;14.60;99.90;;;;;;5104850;28;20085;-83
2023/10/22 09:30:43;;;;;;;5.00;0.60;;;14.60;99.90;;;;;;5087541;28;20040;-85
2023/10/22 09:33:10;;;;;;;5.22;0.50;;;14.60;99.90;;;;;;5097474;28;20034;-86
2023/10/22 09:35:36;;;;;;;4.20;0.70;;;14.60;99.90;;;;;;5112810;28;20054;-84
2023/10/22 09:38:02;;;;;;;5.45;0.95;;;14.70;99.90;;;;;;5103544;28;20038;-87
2023/10/22 09:40:32;;;;;;;4.43;0.85;;;14.70;99.90;;;;;;5083002;28;20025;-89
2023/10/22 09:43:00;;;;;;;3.38;0.90;;;14.80;99.90;;;;;;5083008;28;20020;-83
2023/10/22 09:45:26;;;;;;;5.65;0.70;;;14.90;99.90;;;;;;5104720;28;20027;-83
2023/10/22 09:47:55;;;;;;;3.80;1.00;;;14.90;99.90;;;;;;5093060;28;20039;-80
2023/10/22 09:50:22;;;;;;;5.68;1.08;;;14.90;99.90;;;;;;5107908;28;20028;-84
2023/10/22 09:52:50;;;;;;;5.05;0.70;;;15.00;99.90;;;;;;5092961;28;20030;-84
2023/10/22 09:55:17;;;;;;;4.55;0.80;;;15.00;99.90;;;;;;5101416;28;20023;-86
2023/10/22 09:57:46;;;;;;;3.95;0.60;;;15.10;99.90;;;;;;5113752;28;20024;-83
2023/10/22 10:00:12;;;;;;;7.20;0.70;;;15.00;99.90;;;;;;5112543;28;20500;-85
2023/10/22 10:02:42;;;;;;;3.35;0.55;;;15.10;99.90;;;;;;5097072;28;20121;-83
2023/10/22 10:05:12;;;;;;;5.90;0.68;;;15.20;99.90;;;;;;5092548;28;20021;-85
2023/10/22 10:07:41;;;;;;;5.30;0.77;;;15.20;99.90;;;;;;5075771;28;20036;-84
2023/10/22 10:10:07;;;;;;;4.00;0.90;;;15.20;99.90;;;;;;5079536;28;20028;-82
2023/10/22 10:12:36;;;;;;;6.65;0.77;;;15.20;99.90;;;;;;5097052;28;20032;-82
2023/10/22 10:15:01;;;;;;;7.72;0.73;;;15.30;99.90;;;;;;5115685;28;20034;-81
2023/10/22 10:17:27;;;;;;;7.90;0.93;;;15.40;99.90;;;;;;5108259;28;20114;-83
2023/10/22 10:20:26;;;;;;;7.25;0.82;;;15.40;99.90;;;;;;5095564;28;20024;-80
2023/10/22 10:23:09;;;;;;;6.65;0.70;;;15.40;99.90;;;;;;5115711;28;20491;-84
2023/10/22 10:25:38;;;;;;;6.68;1.33;;;15.50;99.90;;;;;;5100280;28;20060;-84
2023/10/22 10:28:13;;;;;;;4.75;0.85;;;15.60;99.90;;;;;;5095222;28;20056;-84
2023/10/22 10:30:39;;;;;;;4.93;0.95;;;15.70;99.90;;;;;;5113324;28;20092;-84
2023/10/22 10:33:05;;;;;;;2.78;0.73;;;15.90;99.90;;;;;;5079434;28;20481;-84
2023/10/22 10:35:45;;;;;;;5.15;0.50;;;16.10;99.90;;;;;;5074802;28;20049;-84
2023/10/22 10:38:14;;;;;;;3.40;0.70;;;16.30;99.90;;;;;;5103062;28;20491;-84
2023/10/22 10:40:46;;;;;;;4.75;0.80;;;16.40;99.50;;;;;;5114516;28;20040;-85
2023/10/22 10:43:13;;;;;;;3.90;0.82;;;16.40;99.10;;;;;;5100707;28;20376;-87
2023/10/22 10:45:43;;;;;;;3.75;0.68;;;16.50;98.80;;;;;;5115352;28;20023;-83
2023/10/22 10:48:45;;;;;;;2.92;0.73;;;16.50;98.50;;;;;;5100653;28;20070;-83
2023/10/22 10:51:18;;;;;;;7.05;0.68;;;16.60;98.60;;;;;;5082463;28;20123;-85
2023/10/22 10:54:07;;;;;;;4.97;0.68;;;16.70;98.80;;;;;;5094968;28;20039;-82
2023/10/22 10:56:52;;;;;;;3.95;0.75;;;16.70;98.00;;;;;;5095222;28;20024;-83
2023/10/22 10:59:31;;;;;;;4.65;0.63;;;16.50;98.30;;;;;;5107770;28;20047;-84
2023/10/22 11:02:08;;;;;;;5.28;0.95;;;16.50;98.50;;;;;;5098133;28;20032;-82
2023/10/22 11:04:38;;;;;;;3.47;0.70;;;16.40;98.60;;;;;;5111371;28;20491;-84
2023/10/22 11:07:05;;;;;;;3.05;0.38;;;16.40;98.60;;;;;;5100369;28;20019;-84
2023/10/22 11:09:33;;;;;;;5.82;0.70;;;16.30;98.50;;;;;;5105240;28;20031;-86
2023/10/22 11:12:05;;;;;;;2.95;0.50;;;16.30;98.50;;;;;;5116751;28;20024;-90
2023/10/22 11:14:35;;;;;;;6.55;0.70;;;16.20;98.40;;;;;;5115407;28;20024;-88
2023/10/22 11:17:01;;;;;;;3.42;0.77;;;16.30;98.50;;;;;;5100266;28;20097;-84
2023/10/22 11:19:29;;;;;;;4.35;0.60;;;16.30;98.60;;;;;;5115419;28;20028;-84
2023/10/22 11:21:55;;;;;;;6.03;0.63;;;16.30;98.60;;;;;;5093297;28;20378;-80
2023/10/22 11:24:29;;;;;;;3.45;0.50;;;16.40;98.80;;;;;;5094458;28;20024;-82
2023/10/22 11:26:57;;;;;;;3.67;0.95;;;16.40;98.70;;;;;;5093978;28;20057;-80
2023/10/22 11:29:22;;;;;;;1.98;0.32;;;16.50;98.80;;;;;;5095123;28;20030;-82
2023/10/22 11:31:58;;;;;;;2.67;0.80;;;16.40;98.80;;;;;;5093890;28;20126;-83
2023/10/22 11:34:24;;;;;;;2.92;0.55;;;16.50;98.30;;;;;;5110445;28;20027;-82
2023/10/22 11:36:59;;;;;;;5.00;0.88;;;16.50;98.70;;;;;;5110995;28;20048;-83
2023/10/22 11:39:34;;;;;;;8.02;1.00;;;16.60;98.10;;;;;;5101974;28;20491;-83
2023/10/22 11:42:00;;;;;;;6.10;0.80;;;16.70;98.20;;;;;;5114159;28;20115;-82
2023/10/22 11:44:34;;;;;;;5.95;0.88;;;16.80;98.00;;;;;;5097978;28;20027;-83
2023/10/22 11:47:25;;;;;;;7.05;0.82;;;17.00;97.20;;;;;;5086760;28;20028;-83
2023/10/22 11:49:52;;;;;;;4.78;0.73;;;17.30;97.30;;;;;;5106770;28;20031;-83
2023/10/22 11:52:38;;;;;;;3.08;0.82;;;17.60;96.30;;;;;;5113885;28;20036;-83
2023/10/22 11:55:09;;;;;;;4.55;0.57;;;17.60;96.30;;;;;;5082820;28;20100;-83
2023/10/22 11:57:38;;;;;;;4.15;1.02;;;17.80;96.20;;;;;;5110153;28;20020;-82
2023/10/22 12:00:06;;;;;;;5.03;1.05;;;17.90;96.30;;;;;;5114385;28;20032;-84
2023/10/22 12:02:32;;;;;;;4.13;0.80;;;18.10;95.60;;;;;;5076765;28;20037;-84
2023/10/22 12:04:58;;;;;;;1.83;0.50;;;18.20;95.40;;;;;;5093524;28;20084;-83
2023/10/22 12:07:23;;;;;;;3.47;0.60;;;18.40;95.00;;;;;;5090244;28;20027;-84
2023/10/22 12:09:49;;;;;;;3.90;0.52;;;18.60;94.70;;;;;;5093487;28;20111;-84
2023/10/22 12:12:15;;;;;;;4.78;0.65;;;18.80;94.90;;;;;;5094335;28;20046;-83
2023/10/22 12:14:42;;;;;;;1.55;0.40;;;19.00;94.80;;;;;;5094895;28;20032;-84
2023/10/22 12:17:07;;;;;;;3.75;0.70;;;18.90;94.30;;;;;;5092627;28;20028;-86
2023/10/22 12:19:33;;;;;;;3.72;0.50;;;18.60;94.30;;;;;;5096497;28;20035;-85
2023/10/22 12:21:59;;;;;;;6.72;0.95;;;18.30;94.70;;;;;;5096294;28;20029;-87
2023/10/22 12:24:24;;;;;;;3.65;0.60;;;18.20;95.00;;;;;;5093265;28;20036;-85
2023/10/22 12:26:50;;;;;;;3.33;0.50;;;18.20;94.90;;;;;;5098413;28;20670;-83
2023/10/22 12:29:16;;;;;;;3.78;0.52;;;18.40;94.80;;;;;;5100180;28;20081;-84
2023/10/22 12:31:41;;;;;;;3.15;0.73;;;18.40;95.00;;;;;;5092787;28;20366;-85
2023/10/22 12:34:08;;;;;;;3.63;0.38;;;18.40;95.20;;;;;;5093703;28;20346;-85
2023/10/22 12:36:34;;;;;;;3.05;0.50;;;18.40;95.10;;;;;;5092773;28;20067;-83
2023/10/22 12:39:00;;;;;;;1.92;0.38;;;18.70;94.50;;;;;;5092855;28;20024;-86
2023/10/22 12:41:26;;;;;;;6.55;0.60;;;19.00;93.90;;;;;;5093672;28;20024;-86
2023/10/22 12:43:52;;;;;;;2.65;0.50;;;18.90;93.90;;;;;;5101895;28;20028;-86
2023/10/22 12:46:18;;;;;;;5.68;0.60;;;18.80;94.10;;;;;;5108620;28;20035;-84
2023/10/22 12:48:44;;;;;;;3.47;0.55;;;18.70;93.90;;;;;;5097098;28;20024;-82